Time;durP1;ratioP1;P1;durP2;ratioP2;P2;SDS_P1;SDS_P2;PMS_P1;PMS_P2;Temp;Humidity;BMP_temperature;BMP_pressure;BME280_temperature;BME280_humidity;BME280_pressure;Samples;Min_cycle;Max_cycle;Signal;HPM_P1;HPM_P2
2023/10/07 00:00:38;;;;;;;9.23;3.63;;;11.40;94.20;;;;;;5038738;28;20089;-75
2023/10/07 00:03:06;;;;;;;7.60;3.05;;;11.30;90.00;;;;;;5040005;28;20313;-74
2023/10/07 00:05:35;;;;;;;5.93;2.95;;;11.20;90.30;;;;;;5039957;28;20379;-74
2023/10/07 00:08:03;;;;;;;8.45;3.90;;;11.90;85.80;;;;;;5039830;28;20040;-74
2023/10/07 00:10:30;;;;;;;8.20;3.92;;;11.50;85.20;;;;;;5040056;28;20037;-74
2023/10/07 00:13:03;;;;;;;6.13;3.47;;;11.50;93.10;;;;;;5039824;28;20021;-75
2023/10/07 00:15:29;;;;;;;6.35;3.47;;;10.80;93.60;;;;;;5040047;28;20017;-75
2023/10/07 00:17:57;;;;;;;10.57;3.90;;;11.10;86.90;;;;;;5039861;28;20064;-74
2023/10/07 00:20:24;;;;;;;5.97;3.07;;;11.00;88.00;;;;;;5039813;28;20329;-75
2023/10/07 00:22:54;;;;;;;6.53;3.47;;;;;;;;;;5039706;28;20056;-75
2023/10/07 00:25:20;;;;;;;6.32;4.00;;;10.80;95.30;;;;;;5038405;28;20014;-75
2023/10/07 00:27:48;;;;;;;10.32;4.25;;;;;;;;;;5039546;28;20059;-74
2023/10/07 00:30:22;;;;;;;7.75;4.35;;;;;;;;;;5039684;28;20018;-75
2023/10/07 00:32:50;;;;;;;7.38;3.63;;;10.20;93.80;;;;;;5039663;28;20033;-75
2023/10/07 00:35:20;;;;;;;8.88;3.80;;;10.40;95.70;;;;;;5039670;28;20021;-76
2023/10/07 00:37:46;;;;;;;6.78;3.33;;;;;;;;;;5042375;28;20116;-75
2023/10/07 00:40:30;;;;;;;11.60;5.00;;;;;;;;;;5043475;28;20021;-75
2023/10/07 00:42:57;;;;;;;5.75;3.45;;;10.50;96.40;;;;;;5043548;28;20075;-75
2023/10/07 00:45:25;;;;;;;8.55;3.75;;;10.10;90.50;;;;;;5043579;28;20025;-74
2023/10/07 00:47:52;;;;;;;9.00;3.28;;;;;;;;;;5043483;28;20099;-75
2023/10/07 00:50:20;;;;;;;14.75;4.00;;;10.50;89.30;;;;;;5043531;28;20128;-75
2023/10/07 00:55:35;;;;;;;6.45;3.20;;;10.90;91.20;;;;;;5043659;28;20329;-74
2023/10/07 00:58:08;;;;;;;7.93;3.35;;;;;;;;;;5043256;28;20067;-75
2023/10/07 01:00:46;;;;;;;7.85;3.67;;;10.90;95.00;;;;;;5043465;28;20068;-75
2023/10/07 01:06:19;;;;;;;11.95;3.90;;;;;;;;;;5043198;28;20038;-75
2023/10/07 01:09:14;;;;;;;6.60;3.20;;;;;;;;;;5042410;28;20084;-75
2023/10/07 01:11:31;;;;;;;6.18;3.25;;;11.30;92.10;;;;;;5042438;28;20033;-75
2023/10/07 01:14:00;;;;;;;5.18;3.08;;;;;;;;;;5042788;28;20115;-75
2023/10/07 01:18:59;;;;;;;6.63;3.20;;;11.10;95.20;;;;;;5042644;28;20436;-75
2023/10/07 01:21:32;;;;;;;6.10;3.22;;;;;;;;;;5042588;28;20221;-75
2023/10/07 01:23:58;;;;;;;11.95;2.85;;;11.20;90.00;;;;;;5042611;28;20339;-75
2023/10/07 01:26:29;;;;;;;8.00;3.08;;;;;;;;;;5042503;28;20112;-75
2023/10/07 01:29:11;;;;;;;8.38;2.97;;;;;;;;;;5041212;28;20041;-75
2023/10/07 01:31:41;;;;;;;5.78;3.03;;;11.40;95.60;;;;;;5042524;28;20092;-75
2023/10/07 01:34:13;;;;;;;5.90;2.90;;;;;;;;;;5041139;28;20034;-75
2023/10/07 01:36:40;;;;;;;7.22;3.03;;;;;;;;;;5042290;28;20049;-75
2023/10/07 01:39:06;;;;;;;9.73;2.92;;;;;;;;;;5042733;28;20210;-76
2023/10/07 01:41:37;;;;;;;6.25;2.60;;;11.40;95.30;;;;;;5041142;28;20024;-74
2023/10/07 01:44:08;;;;;;;9.30;3.63;;;11.60;89.00;;;;;;5040947;28;20089;-74
2023/10/07 01:46:35;;;;;;;7.75;2.83;;;;;;;;;;5040919;28;20136;-74
2023/10/07 01:49:06;;;;;;;8.95;3.47;;;11.60;88.70;;;;;;5040364;28;20033;-74
2023/10/07 01:51:32;;;;;;;8.75;4.13;;;;;;;;;;5042062;28;20052;-74
2023/10/07 01:54:03;;;;;;;7.35;3.42;;;11.70;85.70;;;;;;5041989;28;20053;-74
2023/10/07 01:56:29;;;;;;;9.35;3.25;;;11.70;85.30;;;;;;5042041;28;20009;-74
2023/10/07 01:59:38;;;;;;;9.88;3.22;;;12.00;91.40;;;;;;5040561;28;20022;-74
2023/10/07 02:02:06;;;;;;;7.53;2.72;;;11.50;89.40;;;;;;5041417;28;20033;-74
2023/10/07 02:04:32;;;;;;;6.88;3.20;;;11.60;93.10;;;;;;5042100;28;20025;-74
2023/10/07 02:06:58;;;;;;;18.73;3.47;;;11.70;93.50;;;;;;5040689;28;20045;-74
2023/10/07 02:09:25;;;;;;;9.55;3.20;;;;;;;;;;5041978;28;20026;-74
2023/10/07 02:11:56;;;;;;;12.90;3.15;;;11.30;93.90;;;;;;5041822;28;20021;-75
2023/10/07 02:14:25;;;;;;;6.18;2.58;;;;;;;;;;5040884;28;20036;-74
2023/10/07 02:16:56;;;;;;;6.88;2.97;;;11.50;86.70;;;;;;5024667;28;20618;-75
2023/10/07 02:19:29;;;;;;;6.78;2.88;;;11.50;94.10;;;;;;5041793;28;20010;-74
2023/10/07 02:22:20;;;;;;;8.43;3.15;;;11.50;87.10;;;;;;5041703;28;20380;-74
2023/10/07 02:24:53;;;;;;;8.57;3.38;;;;;;;;;;5041668;28;20025;-73
2023/10/07 02:27:19;;;;;;;9.65;3.63;;;10.90;93.80;;;;;;5041371;28;20052;-73
2023/10/07 02:29:50;;;;;;;7.32;3.22;;;9.80;86.20;;;;;;5041308;28;20032;-74
2023/10/07 02:32:19;;;;;;;7.65;3.90;;;;;;;;;;5041252;28;20021;-73
2023/10/07 02:34:51;;;;;;;10.15;3.60;;;11.30;87.20;;;;;;5041245;28;20033;-74
2023/10/07 02:37:21;;;;;;;6.93;3.47;;;11.20;90.70;;;;;;5039741;28;20103;-74
2023/10/07 02:39:48;;;;;;;7.50;3.40;;;11.30;88.30;;;;;;5041033;28;20026;-74
2023/10/07 02:42:21;;;;;;;10.95;3.65;;;11.40;89.70;;;;;;5041150;28;20094;-74
2023/10/07 02:47:39;;;;;;;6.85;2.97;;;;;;;;;;5040943;28;20395;-74
2023/10/07 02:50:07;;;;;;;7.55;3.28;;;11.70;93.00;;;;;;5040925;28;20024;-74
2023/10/07 02:52:37;;;;;;;4.97;2.88;;;11.40;92.40;;;;;;5041007;28;20033;-74
2023/10/07 02:57:55;;;;;;;6.57;3.30;;;11.80;95.40;;;;;;5041017;28;20117;-76
2023/10/07 03:00:35;;;;;;;7.07;3.25;;;11.30;95.60;;;;;;5040110;28;20214;-76
2023/10/07 03:05:45;;;;;;;8.90;2.92;;;11.40;95.30;;;;;;5041130;28;20041;-75
2023/10/07 03:08:21;;;;;;;7.47;3.63;;;10.50;90.00;;;;;;5039552;28;20042;-75
2023/10/07 03:13:37;;;;;;;6.18;3.25;;;11.60;92.50;;;;;;5040735;28;20025;-75
2023/10/07 03:24:08;;;;;;;15.47;5.67;;;11.40;94.30;;;;;;5040817;28;20119;-76
2023/10/07 03:26:34;;;;;;;9.85;4.25;;;;;;;;;;5040495;28;20270;-75
2023/10/07 03:29:04;;;;;;;8.10;3.90;;;;;;;;;;5038937;28;20060;-75
2023/10/07 03:34:12;;;;;;;11.60;4.47;;;11.10;96.00;;;;;;5040583;28;20021;-75
2023/10/07 03:41:47;;;;;;;15.32;5.82;;;;;;;;;;5040498;28;20026;-75
2023/10/07 03:44:13;;;;;;;12.45;4.45;;;;;;;;;;5040289;28;20044;-75
2023/10/07 03:46:40;;;;;;;11.38;5.95;;;;;;;;;;5038860;28;20072;-75
2023/10/07 03:49:07;;;;;;;9.73;4.68;;;11.00;96.30;;;;;;5040075;28;20045;-75
2023/10/07 03:51:35;;;;;;;10.48;4.15;;;;;;;;;;5038753;28;20383;-75
2023/10/07 03:54:09;;;;;;;11.67;5.13;;;11.30;95.70;;;;;;5040036;28;20029;-75
2023/10/07 03:56:36;;;;;;;10.80;4.63;;;;;;;;;;5039980;28;20028;-75
2023/10/07 03:59:04;;;;;;;10.85;4.88;;;11.50;96.50;;;;;;5038722;28;20032;-76
2023/10/07 04:01:31;;;;;;;11.18;4.55;;;;;;;;;;5039962;28;20033;-75
2023/10/07 04:04:01;;;;;;;11.95;4.70;;;;;;;;;;5040022;28;20064;-74
2023/10/07 04:06:30;;;;;;;9.80;4.68;;;;;;;;;;5038864;28;20025;-75
2023/10/07 04:09:05;;;;;;;10.27;4.93;;;11.20;93.70;;;;;;5040187;28;20060;-74
2023/10/07 04:11:33;;;;;;;10.32;4.88;;;11.30;91.10;;;;;;5042531;28;20028;-75
2023/10/07 04:14:05;;;;;;;12.20;4.88;;;;;;;;;;5044281;28;20010;-75
2023/10/07 04:16:33;;;;;;;8.88;5.10;;;;;;;;;;5044089;28;20021;-75
2023/10/07 04:21:55;;;;;;;12.18;5.10;;;;;;;;;;5043705;28;20025;-75
2023/10/07 04:24:23;;;;;;;11.73;5.45;;;;;;;;;;5043774;28;20055;-75
2023/10/07 04:27:01;;;;;;;10.55;4.88;;;11.10;95.20;;;;;;5042504;28;20024;-75
2023/10/07 04:29:27;;;;;;;9.70;4.87;;;;;;;;;;5043690;28;20029;-75
2023/10/07 04:31:54;;;;;;;13.40;4.65;;;;;;;;;;5042240;28;20285;-75
2023/10/07 04:34:26;;;;;;;14.98;5.20;;;11.30;91.20;;;;;;5041938;28;20033;-74
2023/10/07 04:39:37;;;;;;;10.23;5.45;;;11.40;91.30;;;;;;5042936;28;20060;-75
2023/10/07 04:42:05;;;;;;;11.70;5.25;;;11.40;91.40;;;;;;5043016;28;20021;-74
2023/10/07 04:52:42;;;;;;;8.50;3.75;;;;;;;;;;5043473;28;20025;-74
2023/10/07 04:55:13;;;;;;;10.38;4.13;;;11.10;92.30;;;;;;5043075;28;20021;-75
2023/10/07 04:57:56;;;;;;;9.50;4.82;;;;;;;;;;5043331;28;20033;-75
2023/10/07 05:03:14;;;;;;;16.13;5.30;;;11.10;92.80;;;;;;5043256;28;20107;-75
2023/10/07 05:05:43;;;;;;;16.27;5.45;;;10.80;96.50;;;;;;5042940;28;20044;-75
2023/10/07 05:08:28;;;;;;;14.32;5.88;;;11.40;97.10;;;;;;5042875;28;20374;-75
2023/10/07 05:11:04;;;;;;;14.02;5.43;;;11.40;95.10;;;;;;5042922;28;20089;-75
2023/10/07 05:13:32;;;;;;;13.32;5.50;;;;;;;;;;5043146;28;20040;-75
2023/10/07 05:15:58;;;;;;;10.75;5.18;;;;;;;;;;5042981;28;20029;-76
2023/10/07 05:18:24;;;;;;;8.48;4.35;;;;;;;;;;5042665;28;20079;-74
2023/10/07 05:20:51;;;;;;;9.05;4.63;;;;;;;;;;5042904;28;20052;-74
2023/10/07 05:23:18;;;;;;;10.25;4.28;;;12.30;96.00;;;;;;5041674;28;20226;-74
2023/10/07 05:25:48;;;;;;;11.57;3.90;;;12.20;90.80;;;;;;5042536;28;20039;-75
2023/10/07 05:28:22;;;;;;;10.13;3.88;;;12.00;90.30;;;;;;5042623;28;20037;-74
2023/10/07 05:30:54;;;;;;;11.57;4.22;;;12.00;91.00;;;;;;5042530;28;20036;-74
2023/10/07 05:33:24;;;;;;;15.27;4.20;;;11.80;94.30;;;;;;5041425;28;20641;-73
2023/10/07 05:35:50;;;;;;;10.02;4.63;;;;;;;;;;5042474;28;20581;-74
2023/10/07 05:38:19;;;;;;;10.65;5.25;;;12.30;95.70;;;;;;5042275;28;20060;-74
2023/10/07 05:40:47;;;;;;;9.55;4.57;;;;;;;;;;5042434;28;20021;-74
2023/10/07 05:43:13;;;;;;;11.52;4.35;;;;;;;;;;5042491;28;20340;-74
2023/10/07 05:45:40;;;;;;;9.35;3.95;;;;;;;;;;5042218;28;20021;-76
2023/10/07 05:48:10;;;;;;;10.90;4.63;;;12.60;95.50;;;;;;5042334;28;20056;-76
2023/10/07 05:50:36;;;;;;;8.32;4.10;;;;;;;;;;5041170;28;20088;-74
2023/10/07 05:53:04;;;;;;;6.57;3.65;;;;;;;;;;5041014;28;20033;-75
2023/10/07 05:55:30;;;;;;;9.15;4.07;;;;;;;;;;5042204;28;20105;-74
2023/10/07 05:57:58;;;;;;;8.02;4.28;;;;;;;;;;5042024;28;20022;-75
2023/10/07 06:00:25;;;;;;;7.05;3.35;;;;;;;;;;5040691;28;20024;-74
2023/10/07 06:02:53;;;;;;;11.48;4.43;;;13.20;94.90;;;;;;5040645;28;20022;-76
2023/10/07 06:05:27;;;;;;;10.45;3.80;;;13.20;94.30;;;;;;5040558;28;20526;-74
2023/10/07 06:07:53;;;;;;;13.38;4.28;;;;;;;;;;5041652;28;20099;-74
2023/10/07 06:10:19;;;;;;;12.82;4.55;;;;;;;;;;5041814;28;20033;-74
2023/10/07 06:12:46;;;;;;;10.00;5.18;;;;;;;;;;5040397;28;20072;-74
2023/10/07 06:15:12;;;;;;;15.27;6.00;;;;;;;;;;5041692;28;20021;-75
2023/10/07 06:17:38;;;;;;;17.45;5.90;;;;;;;;;;5041816;28;20025;-74
2023/10/07 06:22:52;;;;;;;17.25;7.82;;;;;;;;;;5033931;28;20029;-73
2023/10/07 06:25:18;;;;;;;13.88;7.03;;;13.00;91.20;;;;;;5041608;28;20048;-74
2023/10/07 06:27:44;;;;;;;11.80;6.25;;;13.70;89.60;;;;;;5041547;28;20345;-73
2023/10/07 06:30:12;;;;;;;14.38;6.32;;;13.60;93.90;;;;;;5041401;28;20523;-73
2023/10/07 06:32:44;;;;;;;16.23;6.63;;;;;;;;;;5041432;28;20087;-75
2023/10/07 06:35:13;;;;;;;11.40;6.38;;;13.50;86.90;;;;;;5041319;28;20309;-74
2023/10/07 06:37:42;;;;;;;12.82;6.72;;;13.60;87.50;;;;;;5041068;28;20062;-75
2023/10/07 06:40:24;;;;;;;9.52;5.18;;;13.70;88.20;;;;;;5041439;28;20031;-74
2023/10/07 06:42:50;;;;;;;15.70;5.85;;;14.20;93.40;;;;;;5041461;28;20372;-74
2023/10/07 06:45:18;;;;;;;10.25;4.72;;;14.20;94.00;;;;;;5041198;28;20040;-73
2023/10/07 06:47:48;;;;;;;9.70;4.25;;;13.90;86.70;;;;;;5041009;28;20130;-73
2023/10/07 06:50:20;;;;;;;12.82;4.97;;;14.30;87.60;;;;;;5040575;28;20032;-74
2023/10/07 06:52:47;;;;;;;13.65;4.85;;;14.10;84.70;;;;;;5031246;28;20018;-74
2023/10/07 06:55:16;;;;;;;12.88;4.07;;;;;;;;;;5039434;28;20272;-73
2023/10/07 06:57:43;;;;;;;;;;;14.10;84.70;;;;;;5041175;28;20245;-74
2023/10/07 07:00:22;;;;;;;12.88;4.82;;;14.30;85.80;;;;;;5040776;28;19909;-74
2023/10/07 07:02:54;;;;;;;16.00;5.20;;;;;;;;;;5039478;28;20233;-74
2023/10/07 07:05:22;;;;;;;14.95;7.05;;;;;;;;;;5040593;28;20021;-74
2023/10/07 07:07:52;;;;;;;10.70;4.95;;;;;;;;;;5039388;28;20037;-74
2023/10/07 07:10:27;;;;;;;11.13;5.03;;;;;;;;;;5040801;28;20026;-74
2023/10/07 07:13:02;;;;;;;15.73;5.85;;;14.30;84.80;;;;;;5039399;28;20027;-74
2023/10/07 07:15:36;;;;;;;8.90;4.90;;;14.50;83.20;;;;;;5035971;28;20033;-74
2023/10/07 07:18:25;;;;;;;17.23;6.32;;;14.70;92.60;;;;;;5039138;28;20013;-74
2023/10/07 07:20:48;;;;;;;11.63;4.88;;;14.40;92.00;;;;;;5031605;28;20041;-73
2023/10/07 07:23:21;;;;;;;12.75;4.70;;;14.60;84.80;;;;;;5028053;28;20032;-74
2023/10/07 07:25:53;;;;;;;11.38;5.35;;;14.60;90.90;;;;;;5040426;28;20024;-74
2023/10/07 07:28:19;;;;;;;13.57;5.75;;;;;;;;;;5036926;28;20034;-73
2023/10/07 07:30:47;;;;;;;7.25;4.47;;;;;;;;;;5044547;28;20058;-73
2023/10/07 07:33:15;;;;;;;10.03;4.77;;;;;;;;;;5020702;28;20021;-73
2023/10/07 07:35:50;;;;;;;10.23;3.90;;;14.90;81.20;;;;;;5020661;28;20241;-73
2023/10/07 07:41:26;;;;;;;8.55;4.28;;;14.60;89.70;;;;;;5026635;28;20297;-73
2023/10/07 07:43:53;;;;;;;12.10;4.45;;;15.70;90.50;;;;;;5038445;28;20301;-73
2023/10/07 07:46:26;;;;;;;11.52;4.63;;;15.60;82.30;;;;;;5038095;28;20225;-73
2023/10/07 07:48:53;;;;;;;9.10;3.95;;;15.40;88.50;;;;;;5038779;28;20104;-73
2023/10/07 07:51:24;;;;;;;8.32;4.22;;;;;;;;;;5040062;28;20017;-73
2023/10/07 07:53:50;;;;;;;9.55;4.00;;;15.40;84.40;;;;;;5040270;28;20088;-73
2023/10/07 07:56:16;;;;;;;10.48;4.45;;;;;;;;;;5038817;28;20026;-73
2023/10/07 07:58:52;;;;;;;10.95;4.28;;;15.80;88.10;;;;;;5040248;28;20024;-73
2023/10/07 08:01:23;;;;;;;8.85;4.22;;;16.20;76.90;;;;;;5038770;28;20037;-73
2023/10/07 08:03:49;;;;;;;11.90;4.38;;;;;;;;;;5040121;28;20029;-73
2023/10/07 08:06:21;;;;;;;14.05;4.45;;;16.50;85.10;;;;;;5039861;28;20051;-73
2023/10/07 08:08:53;;;;;;;17.83;5.63;;;16.30;77.80;;;;;;5038574;28;20041;-73
2023/10/07 08:11:19;;;;;;;8.85;4.00;;;;;;;;;;5038514;28;20026;-73
2023/10/07 08:13:45;;;;;;;10.15;4.30;;;17.00;73.70;;;;;;5038542;28;20034;-73
2023/10/07 08:16:19;;;;;;;7.45;3.90;;;;;;;;;;5039830;28;20088;-73
2023/10/07 08:18:49;;;;;;;8.60;4.28;;;16.70;84.10;;;;;;5039828;28;20024;-73
2023/10/07 08:21:16;;;;;;;9.68;4.50;;;;;;;;;;5036708;28;20033;-73
2023/10/07 08:23:44;;;;;;;22.17;4.40;;;;;;;;;;5028127;28;20029;-73
2023/10/07 08:26:10;;;;;;;8.88;4.88;;;;;;;;;;5037818;28;20052;-73
2023/10/07 08:29:01;;;;;;;10.32;4.00;;;17.70;70.90;;;;;;5035097;28;20049;-73
2023/10/07 08:31:44;;;;;;;18.98;4.85;;;17.70;73.70;;;;;;5019919;28;20030;-73
2023/10/07 08:34:10;;;;;;;8.68;4.47;;;17.80;73.80;;;;;;5018727;28;20041;-73
2023/10/07 08:36:36;;;;;;;9.80;4.78;;;18.10;68.80;;;;;;5028343;28;20304;-73
2023/10/07 08:39:09;;;;;;;12.65;4.18;;;18.30;68.90;;;;;;5026776;28;20033;-73
2023/10/07 08:41:40;;;;;;;10.23;4.28;;;18.30;68.70;;;;;;5019820;28;20026;-73
2023/10/07 08:44:14;;;;;;;11.75;3.97;;;18.20;72.60;;;;;;5019744;28;20053;-73
2023/10/07 08:46:53;;;;;;;10.68;4.43;;;18.30;76.30;;;;;;5034396;28;20206;-73
2023/10/07 08:49:26;;;;;;;7.30;3.85;;;19.00;65.10;;;;;;5032313;28;20064;-73
2023/10/07 08:51:59;;;;;;;14.05;3.80;;;19.30;64.80;;;;;;5019709;28;20021;-75
2023/10/07 08:54:31;;;;;;;8.23;4.07;;;19.50;65.00;;;;;;5019640;28;20026;-74
2023/10/07 08:57:05;;;;;;;10.13;4.30;;;19.70;64.00;;;;;;5019654;28;20040;-73
2023/10/07 08:59:32;;;;;;;10.43;4.28;;;19.70;62.70;;;;;;5023194;28;20021;-73
2023/10/07 09:02:12;;;;;;;9.32;3.92;;;19.80;60.70;;;;;;5023115;28;20348;-74
2023/10/07 09:04:40;;;;;;;10.65;4.07;;;20.30;66.20;;;;;;5023127;28;20052;-74
2023/10/07 09:07:11;;;;;;;11.98;3.85;;;;;;;;;;5023028;28;20037;-74
2023/10/07 09:09:38;;;;;;;9.93;3.72;;;19.90;61.20;;;;;;5023191;28;20040;-73
2023/10/07 09:12:28;;;;;;;8.20;3.63;;;19.50;69.20;;;;;;5023007;28;20470;-73
2023/10/07 09:14:57;;;;;;;8.02;3.67;;;;;;;;;;5023096;28;20026;-73
2023/10/07 09:17:26;;;;;;;8.25;4.05;;;19.20;60.00;;;;;;5038253;28;20030;-74
2023/10/07 09:19:58;;;;;;;11.82;4.10;;;19.00;60.00;;;;;;5023027;28;20025;-74
2023/10/07 09:22:27;;;;;;;10.52;4.40;;;18.20;70.70;;;;;;5023035;28;20022;-73
2023/10/07 09:25:36;;;;;;;9.77;4.47;;;;;;;;;;5023073;28;20022;-74
2023/10/07 09:28:07;;;;;;;12.15;3.92;;;19.30;72.60;;;;;;5025005;28;20352;-74
2023/10/07 09:32:59;;;;;;;9.13;4.10;;;;;;;;;;5022825;28;20022;-74
2023/10/07 09:35:26;;;;;;;12.82;4.50;;;;;;;;;;5024321;28;20116;-74
2023/10/07 09:38:00;;;;;;;7.65;4.25;;;19.50;71.40;;;;;;5040631;28;20110;-74
2023/10/07 09:43:19;;;;;;;8.05;3.97;;;;;;;;;;5022659;28;20021;-74
2023/10/07 09:45:52;;;;;;;10.88;3.75;;;19.90;69.90;;;;;;5022664;28;20224;-74
2023/10/07 09:48:33;;;;;;;10.60;4.05;;;19.80;70.20;;;;;;5022441;28;20036;-74
2023/10/07 09:50:59;;;;;;;7.72;3.83;;;;;;;;;;5022315;28;20093;-73
2023/10/07 09:53:57;;;;;;;7.75;4.32;;;18.40;70.50;;;;;;5022196;28;20018;-74
2023/10/07 09:56:32;;;;;;;8.68;4.18;;;18.60;61.70;;;;;;5022138;28;20033;-74
2023/10/07 09:59:37;;;;;;;7.00;4.13;;;18.70;62.20;;;;;;5022125;28;20026;-73
2023/10/07 10:02:31;;;;;;;7.72;4.20;;;19.00;61.70;;;;;;5018899;28;20080;-74
2023/10/07 10:05:11;;;;;;;10.55;4.85;;;19.40;61.00;;;;;;5031556;28;20025;-73
2023/10/07 10:08:08;;;;;;;9.20;3.97;;;19.20;60.00;;;;;;5021993;28;20030;-74
2023/10/07 10:10:34;;;;;;;9.60;3.35;;;;;;;;;;5021893;28;20082;-74
2023/10/07 10:18:06;;;;;;;12.25;3.78;;;20.10;63.30;;;;;;5021657;28;20022;-74
2023/10/07 10:20:45;;;;;;;6.72;4.00;;;20.60;56.40;;;;;;5021706;28;20033;-74
2023/10/07 10:23:20;;;;;;;14.40;4.43;;;20.30;66.70;;;;;;5021895;28;20021;-74
2023/10/07 10:25:49;;;;;;;8.52;3.75;;;21.40;58.90;;;;;;5020323;28;20021;-74
2023/10/07 10:28:27;;;;;;;7.18;3.72;;;21.10;56.20;;;;;;5021440;28;20030;-74
2023/10/07 10:30:55;;;;;;;8.68;4.07;;;21.40;64.20;;;;;;5021771;28;20088;-73
2023/10/07 10:33:24;;;;;;;18.55;5.07;;;21.40;55.40;;;;;;5021415;28;20049;-74
2023/10/07 10:35:57;;;;;;;6.75;3.05;;;21.40;54.30;;;;;;5021415;28;20025;-73
2023/10/07 10:38:23;;;;;;;7.32;3.40;;;;;;;;;;5021174;28;20049;-74
2023/10/07 10:40:49;;;;;;;8.63;3.92;;;;;;;;;;5021408;28;20026;-73
2023/10/07 10:43:25;;;;;;;7.28;3.50;;;21.10;55.00;;;;;;5029282;28;20028;-74
2023/10/07 10:46:05;;;;;;;8.77;3.80;;;21.50;65.80;;;;;;5028809;28;20089;-74
2023/10/07 10:48:31;;;;;;;7.22;3.33;;;22.00;62.30;;;;;;5021407;28;20081;-74
2023/10/07 10:50:58;;;;;;;8.65;3.58;;;;;;;;;;5021360;28;20022;-74
2023/10/07 10:53:24;;;;;;;5.22;3.40;;;;;;;;;;5021250;28;20329;-74
2023/10/07 10:55:51;;;;;;;8.07;3.30;;;22.00;52.10;;;;;;5021426;28;20034;-74
2023/10/07 10:58:17;;;;;;;4.55;2.97;;;22.40;51.40;;;;;;5021192;28;20033;-75
2023/10/07 11:00:51;;;;;;;8.75;3.65;;;22.70;51.90;;;;;;5030055;28;20033;-74
2023/10/07 11:03:21;;;;;;;9.02;3.00;;;;;;;;;;5041043;28;20028;-73
2023/10/07 11:05:48;;;;;;;6.18;2.78;;;22.30;49.30;;;;;;5040899;28;20013;-74
2023/10/07 11:08:22;;;;;;;5.03;2.80;;;22.40;53.50;;;;;;5040783;28;20083;-74
2023/10/07 11:10:53;;;;;;;10.05;2.85;;;22.30;48.70;;;;;;5040835;28;20045;-73
2023/10/07 11:13:20;;;;;;;6.28;2.97;;;;;;;;;;5040756;28;20092;-73
2023/10/07 11:16:22;;;;;;;6.60;2.67;;;22.00;47.20;;;;;;5023064;28;20018;-73
2023/10/07 11:18:47;;;;;;;14.90;3.08;;;;;;;;;;5039734;28;20045;-74
2023/10/07 11:21:15;;;;;;;5.07;3.10;;;;;;;;;;5039774;28;20225;-74
2023/10/07 11:23:49;;;;;;;7.38;3.08;;;22.80;49.00;;;;;;5040399;28;20030;-74
2023/10/07 11:26:19;;;;;;;13.05;2.60;;;22.90;46.20;;;;;;5040388;28;20090;-74
2023/10/07 11:28:48;;;;;;;4.70;2.50;;;22.70;53.60;;;;;;5020552;28;20042;-73
2023/10/07 11:31:19;;;;;;;;;;;22.70;46.30;;;;;;5032232;28;20029;-74
2023/10/07 11:33:52;;;;;;;4.55;2.17;;;23.00;50.20;;;;;;5035784;28;19917;-74
2023/10/07 11:36:17;;;;;;;3.97;1.95;;;23.10;55.00;;;;;;5030725;28;20017;-74
2023/10/07 11:38:43;;;;;;;7.43;2.20;;;;;;;;;;5040218;28;20036;-74
2023/10/07 11:41:10;;;;;;;11.52;3.17;;;22.60;55.60;;;;;;5040015;28;20050;-74
2023/10/07 11:43:48;;;;;;;4.97;2.70;;;22.60;51.90;;;;;;5040341;28;20032;-74
2023/10/07 11:46:15;;;;;;;8.07;2.53;;;23.10;50.40;;;;;;5034817;28;20101;-74
2023/10/07 11:48:41;;;;;;;3.95;2.78;;;22.90;56.50;;;;;;5038732;28;20035;-74
2023/10/07 11:51:10;;;;;;;5.22;2.53;;;22.80;48.80;;;;;;5040021;28;20025;-74
2023/10/07 11:53:37;;;;;;;8.40;2.80;;;;;;;;;;5040094;28;20025;-73
2023/10/07 11:56:05;;;;;;;5.72;2.75;;;;;;;;;;5038775;28;20009;-73
2023/10/07 11:58:34;;;;;;;;;;;23.00;48.50;;;;;;5039251;28;20045;-74
2023/10/07 12:01:03;;;;;;;4.43;2.50;;;;;;;;;;5040033;28;19980;-73
2023/10/07 12:03:30;;;;;;;6.22;3.00;;;;;;;;;;5020218;28;20010;-73
2023/10/07 12:05:58;;;;;;;7.22;2.58;;;;;;;;;;5020295;28;20088;-74
2023/10/07 12:08:25;;;;;;;8.35;3.05;;;22.70;49.60;;;;;;5020239;28;20038;-73
2023/10/07 12:10:51;;;;;;;7.35;2.90;;;;;;;;;;5019064;28;20029;-74
2023/10/07 12:13:19;;;;;;;8.15;2.70;;;;;;;;;;5020291;28;20053;-74
2023/10/07 12:15:45;;;;;;;8.13;2.42;;;;;;;;;;5020186;28;20089;-74
2023/10/07 12:18:16;;;;;;;10.82;3.17;;;24.00;54.50;;;;;;5035500;28;20018;-74
2023/10/07 12:20:42;;;;;;;9.35;2.45;;;24.90;53.60;;;;;;5040220;28;20084;-74
2023/10/07 12:23:08;;;;;;;6.60;3.33;;;;;;;;;;5039884;28;20031;-73
2023/10/07 12:25:37;;;;;;;6.50;3.03;;;27.80;49.10;;;;;;5039733;28;20213;-74
2023/10/07 12:28:05;;;;;;;6.95;2.70;;;28.00;47.50;;;;;;5038496;28;20119;-74
2023/10/07 12:30:35;;;;;;;7.38;2.70;;;28.00;39.70;;;;;;5039759;28;20009;-74
2023/10/07 12:33:04;;;;;;;6.60;2.80;;;28.50;41.90;;;;;;5042847;28;20028;-73
2023/10/07 12:35:31;;;;;;;4.80;2.35;;;;;;;;;;5043555;28;20086;-74
2023/10/07 12:37:59;;;;;;;5.57;2.42;;;27.70;45.30;;;;;;5042333;28;20050;-74
2023/10/07 12:40:28;;;;;;;9.15;3.22;;;28.40;44.00;;;;;;5043497;28;20155;-74
2023/10/07 12:42:56;;;;;;;6.88;2.78;;;;;;;;;;5043527;28;20064;-74
2023/10/07 12:45:22;;;;;;;5.05;2.70;;;30.10;41.70;;;;;;5043382;28;20014;-74
2023/10/07 12:47:51;;;;;;;6.88;3.00;;;28.80;42.30;;;;;;5043368;28;20559;-74
2023/10/07 12:50:23;;;;;;;6.32;3.03;;;28.50;37.80;;;;;;5043425;28;20213;-75
2023/10/07 12:52:53;;;;;;;5.75;3.20;;;29.00;42.10;;;;;;5043827;28;20037;-75
2023/10/07 12:55:19;;;;;;;8.38;3.20;;;30.10;36.80;;;;;;5043457;28;20032;-74
2023/10/07 12:57:49;;;;;;;6.22;2.90;;;;;;;;;;5043466;28;20029;-75
2023/10/07 13:00:31;;;;;;;5.00;2.75;;;29.60;42.20;;;;;;5043264;28;20024;-72
2023/10/07 13:03:01;;;;;;;8.68;3.28;;;28.40;43.70;;;;;;5043187;28;20250;-74
2023/10/07 13:05:32;;;;;;;5.85;3.13;;;;;;;;;;5043356;28;20037;-74
2023/10/07 13:07:59;;;;;;;5.32;3.72;;;25.30;46.70;;;;;;5043000;28;20026;-73
2023/10/07 13:10:26;;;;;;;6.63;2.67;;;24.60;50.10;;;;;;5042928;28;20025;-74
2023/10/07 13:12:55;;;;;;;5.00;2.45;;;;;;;;;;5042888;28;20023;-74
2023/10/07 13:15:30;;;;;;;3.70;2.65;;;24.00;44.80;;;;;;5042868;28;20074;-73
2023/10/07 13:17:58;;;;;;;5.35;3.03;;;23.50;51.30;;;;;;5042901;28;20013;-73
2023/10/07 13:20:26;;;;;;;9.63;3.28;;;23.80;46.40;;;;;;5042777;28;20033;-74
2023/10/07 13:22:54;;;;;;;4.97;3.22;;;23.80;44.50;;;;;;5043049;28;20048;-73
2023/10/07 13:25:21;;;;;;;4.38;2.78;;;;;;;;;;5042755;28;20336;-73
2023/10/07 13:27:48;;;;;;;5.53;2.47;;;23.80;44.70;;;;;;5041431;28;20047;-74
2023/10/07 13:30:16;;;;;;;6.60;2.80;;;23.50;45.90;;;;;;5042655;28;20037;-74
2023/10/07 13:32:47;;;;;;;6.72;3.30;;;23.50;45.20;;;;;;5041427;28;20048;-74
2023/10/07 13:35:18;;;;;;;12.15;3.90;;;23.20;45.70;;;;;;5042671;28;20027;-74
2023/10/07 13:37:45;;;;;;;6.00;2.38;;;;;;;;;;5042346;28;20341;-73
2023/10/07 13:40:17;;;;;;;6.18;3.28;;;23.40;54.60;;;;;;5042452;28;20017;-73
2023/10/07 13:42:43;;;;;;;6.63;3.47;;;22.80;55.00;;;;;;5042272;28;20029;-73
2023/10/07 13:45:10;;;;;;;8.77;3.50;;;22.40;55.10;;;;;;5041925;28;20009;-73
2023/10/07 13:47:35;;;;;;;5.18;2.47;;;22.00;55.30;;;;;;5042350;28;20033;-74
2023/10/07 13:50:13;;;;;;;10.38;2.88;;;22.90;55.80;;;;;;5042069;28;20093;-73
2023/10/07 13:53:12;;;;;;;8.32;2.88;;;22.10;55.50;;;;;;5042321;28;20053;-74
2023/10/07 13:58:16;;;;;;;8.60;2.88;;;22.50;47.90;;;;;;5042212;28;20028;-74
2023/10/07 14:00:46;;;;;;;10.20;3.47;;;22.50;55.50;;;;;;5042122;28;20024;-74
2023/10/07 14:03:19;;;;;;;5.00;2.65;;;21.80;55.40;;;;;;5042048;28;20026;-73
2023/10/07 14:06:12;;;;;;;5.53;2.45;;;22.50;51.40;;;;;;5042088;28;20213;-74
2023/10/07 14:08:43;;;;;;;5.68;2.45;;;;;;;;;;5041843;28;20048;-73
2023/10/07 14:11:09;;;;;;;8.40;2.83;;;22.70;54.50;;;;;;5041843;28;20375;-74
2023/10/07 14:13:36;;;;;;;5.15;2.72;;;20.30;46.20;;;;;;5041821;28;20344;-73
2023/10/07 14:16:09;;;;;;;7.28;3.20;;;22.40;46.80;;;;;;5041858;28;20045;-73
2023/10/07 14:18:37;;;;;;;8.35;2.90;;;;;;;;;;5041855;28;20097;-74
2023/10/07 14:21:07;;;;;;;6.53;3.10;;;;;;;;;;5026006;28;20036;-73
2023/10/07 14:23:34;;;;;;;8.80;2.88;;;22.40;47.60;;;;;;5022212;28;20630;-73
2023/10/07 14:26:03;;;;;;;12.32;2.72;;;22.10;54.60;;;;;;5021891;28;20032;-73
2023/10/07 14:28:29;;;;;;;9.18;3.25;;;;;;;;;;5021822;28;20318;-74
2023/10/07 14:30:55;;;;;;;8.73;2.97;;;;;;;;;;5029628;28;20241;-73
2023/10/07 14:33:22;;;;;;;6.93;2.90;;;21.40;54.80;;;;;;5040429;28;20187;-73
2023/10/07 14:35:50;;;;;;;10.73;3.63;;;21.60;46.70;;;;;;5035281;28;20030;-73
2023/10/07 14:38:16;;;;;;;10.15;3.33;;;;;;;;;;5034291;28;20092;-73
2023/10/07 14:40:44;;;;;;;12.63;4.05;;;21.90;46.90;;;;;;5021718;28;20210;-73
2023/10/07 14:43:13;;;;;;;9.35;3.38;;;22.00;50.80;;;;;;5021666;28;20042;-73
2023/10/07 14:45:47;;;;;;;7.88;2.92;;;21.80;47.60;;;;;;5021539;28;20096;-73
2023/10/07 14:48:13;;;;;;;14.68;4.05;;;;;;;;;;5021471;28;20065;-73
2023/10/07 14:50:42;;;;;;;10.45;2.55;;;;;;;;;;5021395;28;20028;-73